sensor_id;sensor_type;location;lat;lon;timestamp;P1;durP1;ratioP1;P2;durP2;ratioP2
33794;SDS011;51430;52.242;21.118;2023-02-13T00:04:34;32.40;;;22.50;;
33794;SDS011;51430;52.242;21.118;2023-02-13T00:07:52;35.90;;;21.70;;
33794;SDS011;51430;52.242;21.118;2023-02-13T00:16:39;33.70;;;22.00;;
33794;SDS011;51430;52.242;21.118;2023-02-13T00:20:44;35.60;;;22.50;;
33794;SDS011;51430;52.242;21.118;2023-02-13T00:24:16;32.40;;;21.00;;
33794;SDS011;51430;52.242;21.118;2023-02-13T00:33:27;32.90;;;22.00;;
33794;SDS011;51430;52.242;21.118;2023-02-13T00:37:25;33.80;;;20.90;;
33794;SDS011;51430;52.242;21.118;2023-02-13T00:41:22;31.20;;;20.70;;
33794;SDS011;51430;52.242;21.118;2023-02-13T00:45:17;31.80;;;19.80;;
33794;SDS011;51430;52.242;21.118;2023-02-13T00:49:16;28.60;;;20.20;;
33794;SDS011;51430;52.242;21.118;2023-02-13T00:53:14;32.40;;;19.80;;
33794;SDS011;51430;52.242;21.118;2023-02-13T00:57:09;27.20;;;18.60;;
33794;SDS011;51430;52.242;21.118;2023-02-13T01:01:26;28.00;;;18.50;;
33794;SDS011;51430;52.242;21.118;2023-02-13T01:04:46;28.10;;;18.50;;
33794;SDS011;51430;52.242;21.118;2023-02-13T01:08:41;27.10;;;18.50;;
33794;SDS011;51430;52.242;21.118;2023-02-13T01:11:28;32.50;;;21.80;;
33794;SDS011;51430;52.242;21.118;2023-02-13T01:14:15;31.10;;;22.90;;
33794;SDS011;51430;52.242;21.118;2023-02-13T01:17:01;31.30;;;22.30;;
33794;SDS011;51430;52.242;21.118;2023-02-13T01:19:48;29.90;;;21.90;;
33794;SDS011;51430;52.242;21.118;2023-02-13T01:24:15;28.80;;;19.20;;
33794;SDS011;51430;52.242;21.118;2023-02-13T01:27:33;27.20;;;19.10;;
33794;SDS011;51430;52.242;21.118;2023-02-13T01:31:36;24.90;;;17.90;;
33794;SDS011;51430;52.242;21.118;2023-02-13T01:35:34;28.10;;;20.10;;
33794;SDS011;51430;52.242;21.118;2023-02-13T01:39:31;29.10;;;19.20;;
33794;SDS011;51430;52.242;21.118;2023-02-13T01:43:43;27.80;;;19.00;;
33794;SDS011;51430;52.242;21.118;2023-02-13T01:48:05;30.70;;;18.90;;
33794;SDS011;51430;52.242;21.118;2023-02-13T01:55:43;26.20;;;18.70;;
33794;SDS011;51430;52.242;21.118;2023-02-13T01:59:48;32.10;;;19.90;;
33794;SDS011;51430;52.242;21.118;2023-02-13T02:03:46;27.60;;;18.60;;
33794;SDS011;51430;52.242;21.118;2023-02-13T02:07:48;25.40;;;18.90;;
33794;SDS011;51430;52.242;21.118;2023-02-13T02:11:51;30.00;;;18.50;;
33794;SDS011;51430;52.242;21.118;2023-02-13T02:15:55;25.90;;;18.20;;
33794;SDS011;51430;52.242;21.118;2023-02-13T02:24:03;26.50;;;17.70;;
33794;SDS011;51430;52.242;21.118;2023-02-13T02:41:24;25.20;;;16.60;;
33794;SDS011;51430;52.242;21.118;2023-02-13T02:54:29;27.70;;;16.90;;
33794;SDS011;51430;52.242;21.118;2023-02-13T02:58:55;23.50;;;16.20;;
33794;SDS011;51430;52.242;21.118;2023-02-13T03:03:21;22.50;;;15.40;;
33794;SDS011;51430;52.242;21.118;2023-02-13T03:12:03;22.10;;;15.10;;
33794;SDS011;51430;52.242;21.118;2023-02-13T03:16:21;27.90;;;15.30;;
33794;SDS011;51430;52.242;21.118;2023-02-13T03:20:45;24.10;;;15.30;;
33794;SDS011;51430;52.242;21.118;2023-02-13T03:25:20;22.80;;;15.30;;
33794;SDS011;51430;52.242;21.118;2023-02-13T03:38:24;26.40;;;15.90;;
33794;SDS011;51430;52.242;21.118;2023-02-13T03:42:33;24.50;;;15.90;;
33794;SDS011;51430;52.242;21.118;2023-02-13T03:46:38;27.40;;;15.30;;
33794;SDS011;51430;52.242;21.118;2023-02-13T03:50:37;22.10;;;14.90;;
33794;SDS011;51430;52.242;21.118;2023-02-13T03:54:42;24.10;;;15.40;;
33794;SDS011;51430;52.242;21.118;2023-02-13T03:59:03;20.70;;;15.20;;
33794;SDS011;51430;52.242;21.118;2023-02-13T04:07:29;24.60;;;14.90;;
33794;SDS011;51430;52.242;21.118;2023-02-13T04:11:30;24.00;;;15.20;;
33794;SDS011;51430;52.242;21.118;2023-02-13T04:19:59;25.20;;;15.50;;
33794;SDS011;51430;52.242;21.118;2023-02-13T04:23:54;23.20;;;14.90;;
33794;SDS011;51430;52.242;21.118;2023-02-13T04:26:45;24.40;;;17.60;;
33794;SDS011;51430;52.242;21.118;2023-02-13T04:33:46;25.50;;;18.00;;
33794;SDS011;51430;52.242;21.118;2023-02-13T04:39:09;22.00;;;15.50;;
33794;SDS011;51430;52.242;21.118;2023-02-13T04:43:08;20.50;;;15.00;;
33794;SDS011;51430;52.242;21.118;2023-02-13T04:47:03;19.70;;;15.80;;
33794;SDS011;51430;52.242;21.118;2023-02-13T04:51:01;21.10;;;14.70;;
33794;SDS011;51430;52.242;21.118;2023-02-13T04:54:57;19.50;;;14.70;;
33794;SDS011;51430;52.242;21.118;2023-02-13T04:58:54;22.90;;;14.80;;
33794;SDS011;51430;52.242;21.118;2023-02-13T05:03:10;24.30;;;14.80;;
33794;SDS011;51430;52.242;21.118;2023-02-13T05:06:46;23.10;;;15.50;;
33794;SDS011;51430;52.242;21.118;2023-02-13T05:10:05;20.10;;;14.80;;
33794;SDS011;51430;52.242;21.118;2023-02-13T05:14:03;23.60;;;15.50;;
33794;SDS011;51430;52.242;21.118;2023-02-13T05:16:49;24.60;;;17.70;;
33794;SDS011;51430;52.242;21.118;2023-02-13T05:19:36;22.40;;;18.20;;
33794;SDS011;51430;52.242;21.118;2023-02-13T05:22:23;24.80;;;19.40;;
33794;SDS011;51430;52.242;21.118;2023-02-13T05:25:28;25.80;;;19.00;;
33794;SDS011;51430;52.242;21.118;2023-02-13T05:30:48;22.90;;;15.80;;
33794;SDS011;51430;52.242;21.118;2023-02-13T05:34:43;20.20;;;15.20;;
33794;SDS011;51430;52.242;21.118;2023-02-13T05:38:43;23.10;;;15.60;;
33794;SDS011;51430;52.242;21.118;2023-02-13T05:42:39;22.40;;;14.80;;
33794;SDS011;51430;52.242;21.118;2023-02-13T05:45:26;22.80;;;17.70;;
33794;SDS011;51430;52.242;21.118;2023-02-13T05:48:13;22.10;;;17.90;;
33794;SDS011;51430;52.242;21.118;2023-02-13T05:51:00;23.00;;;17.90;;
33794;SDS011;51430;52.242;21.118;2023-02-13T05:53:47;24.80;;;18.40;;
33794;SDS011;51430;52.242;21.118;2023-02-13T05:56:33;22.60;;;17.60;;
33794;SDS011;51430;52.242;21.118;2023-02-13T05:59:20;22.50;;;17.30;;
33794;SDS011;51430;52.242;21.118;2023-02-13T06:02:09;23.70;;;17.50;;
33794;SDS011;51430;52.242;21.118;2023-02-13T06:04:56;22.50;;;16.90;;
33794;SDS011;51430;52.242;21.118;2023-02-13T06:09:30;21.20;;;14.30;;
33794;SDS011;51430;52.242;21.118;2023-02-13T06:13:26;21.10;;;14.40;;
33794;SDS011;51430;52.242;21.118;2023-02-13T06:16:14;21.40;;;16.30;;
33794;SDS011;51430;52.242;21.118;2023-02-13T06:19:06;19.50;;;15.60;;
33794;SDS011;51430;52.242;21.118;2023-02-13T06:21:53;20.30;;;15.40;;
33794;SDS011;51430;52.242;21.118;2023-02-13T06:27:55;19.60;;;15.30;;
33794;SDS011;51430;52.242;21.118;2023-02-13T06:30:43;19.80;;;15.80;;
33794;SDS011;51430;52.242;21.118;2023-02-13T06:33:30;21.30;;;15.70;;
33794;SDS011;51430;52.242;21.118;2023-02-13T06:36:17;20.40;;;16.30;;
33794;SDS011;51430;52.242;21.118;2023-02-13T06:39:05;21.80;;;15.90;;
33794;SDS011;51430;52.242;21.118;2023-02-13T06:45:30;20.60;;;16.00;;
33794;SDS011;51430;52.242;21.118;2023-02-13T06:48:17;22.40;;;16.20;;
33794;SDS011;51430;52.242;21.118;2023-02-13T06:51:12;19.70;;;13.40;;
33794;SDS011;51430;52.242;21.118;2023-02-13T06:55:11;21.50;;;14.40;;
33794;SDS011;51430;52.242;21.118;2023-02-13T06:59:06;18.40;;;13.30;;
33794;SDS011;51430;52.242;21.118;2023-02-13T07:03:04;19.60;;;13.20;;
33794;SDS011;51430;52.242;21.118;2023-02-13T07:07:02;18.10;;;13.40;;
33794;SDS011;51430;52.242;21.118;2023-02-13T07:11:00;21.00;;;14.10;;
33794;SDS011;51430;52.242;21.118;2023-02-13T07:14:59;21.10;;;13.40;;
33794;SDS011;51430;52.242;21.118;2023-02-13T07:18:54;19.80;;;13.60;;
33794;SDS011;51430;52.242;21.118;2023-02-13T07:21:41;19.30;;;15.50;;
33794;SDS011;51430;52.242;21.118;2023-02-13T07:24:27;18.10;;;15.40;;
33794;SDS011;51430;52.242;21.118;2023-02-13T07:27:14;21.90;;;16.30;;
33794;SDS011;51430;52.242;21.118;2023-02-13T07:30:00;22.60;;;15.60;;
33794;SDS011;51430;52.242;21.118;2023-02-13T07:32:47;20.30;;;15.10;;
33794;SDS011;51430;52.242;21.118;2023-02-13T07:35:34;18.70;;;14.70;;
33794;SDS011;51430;52.242;21.118;2023-02-13T07:38:23;21.50;;;15.20;;
33794;SDS011;51430;52.242;21.118;2023-02-13T07:41:09;19.10;;;15.40;;
33794;SDS011;51430;52.242;21.118;2023-02-13T07:43:56;20.80;;;14.10;;
33794;SDS011;51430;52.242;21.118;2023-02-13T07:46:43;19.70;;;13.40;;
33794;SDS011;51430;52.242;21.118;2023-02-13T07:49:29;17.40;;;12.50;;
33794;SDS011;51430;52.242;21.118;2023-02-13T07:53:34;14.90;;;10.00;;
33794;SDS011;51430;52.242;21.118;2023-02-13T07:57:03;15.10;;;8.90;;
33794;SDS011;51430;52.242;21.118;2023-02-13T07:59:50;15.70;;;11.20;;
33794;SDS011;51430;52.242;21.118;2023-02-13T08:02:39;12.00;;;10.60;;
33794;SDS011;51430;52.242;21.118;2023-02-13T08:05:28;13.00;;;10.20;;
33794;SDS011;51430;52.242;21.118;2023-02-13T08:08:17;14.40;;;10.50;;
33794;SDS011;51430;52.242;21.118;2023-02-13T08:11:04;15.00;;;10.40;;
33794;SDS011;51430;52.242;21.118;2023-02-13T08:14:16;12.70;;;9.90;;
33794;SDS011;51430;52.242;21.118;2023-02-13T08:17:03;13.30;;;10.10;;
33794;SDS011;51430;52.242;21.118;2023-02-13T08:21:16;10.70;;;8.60;;
33794;SDS011;51430;52.242;21.118;2023-02-13T08:25:11;10.70;;;7.80;;
33794;SDS011;51430;52.242;21.118;2023-02-13T08:29:11;12.60;;;7.60;;
33794;SDS011;51430;52.242;21.118;2023-02-13T08:44:01;11.80;;;8.90;;
33794;SDS011;51430;52.242;21.118;2023-02-13T08:47:06;12.80;;;9.30;;
33794;SDS011;51430;52.242;21.118;2023-02-13T09:01:29;7.00;;;6.30;;
33794;SDS011;51430;52.242;21.118;2023-02-13T09:23:15;5.30;;;4.60;;
33794;SDS011;51430;52.242;21.118;2023-02-13T09:37:40;6.40;;;5.80;;
33794;SDS011;51430;52.242;21.118;2023-02-13T09:40:51;7.70;;;5.50;;
33794;SDS011;51430;52.242;21.118;2023-02-13T09:46:35;9.50;;;6.30;;
33794;SDS011;51430;52.242;21.118;2023-02-13T09:49:24;7.50;;;6.30;;
33794;SDS011;51430;52.242;21.118;2023-02-13T09:54:57;9.50;;;5.70;;
33794;SDS011;51430;52.242;21.118;2023-02-13T09:58:38;9.90;;;6.10;;
33794;SDS011;51430;52.242;21.118;2023-02-13T10:20:52;6.10;;;4.70;;
33794;SDS011;51430;52.242;21.118;2023-02-13T10:34:54;8.00;;;4.70;;
33794;SDS011;51430;52.242;21.118;2023-02-13T10:37:57;6.90;;;4.90;;
33794;SDS011;51430;52.242;21.118;2023-02-13T10:42:03;7.90;;;4.60;;
33794;SDS011;51430;52.242;21.118;2023-02-13T11:09:53;10.70;;;7.30;;
33794;SDS011;51430;52.242;21.118;2023-02-13T11:27:07;7.20;;;6.10;;
33794;SDS011;51430;52.242;21.118;2023-02-13T11:30:31;8.40;;;6.10;;
33794;SDS011;51430;52.242;21.118;2023-02-13T11:44:37;7.20;;;5.70;;
33794;SDS011;51430;52.242;21.118;2023-02-13T11:50:28;8.80;;;7.70;;
33794;SDS011;51430;52.242;21.118;2023-02-13T11:53:18;9.00;;;7.10;;
33794;SDS011;51430;52.242;21.118;2023-02-13T13:26:35;9.00;;;7.30;;
33794;SDS011;51430;52.242;21.118;2023-02-13T13:30:56;9.20;;;7.40;;
33794;SDS011;51430;52.242;21.118;2023-02-13T13:34:16;10.90;;;7.10;;
33794;SDS011;51430;52.242;21.118;2023-02-13T13:42:38;9.20;;;6.80;;
33794;SDS011;51430;52.242;21.118;2023-02-13T13:50:26;10.10;;;6.90;;
33794;SDS011;51430;52.242;21.118;2023-02-13T13:54:32;9.70;;;6.80;;
33794;SDS011;51430;52.242;21.118;2023-02-13T13:58:32;8.40;;;6.50;;
33794;SDS011;51430;52.242;21.118;2023-02-13T14:32:40;10.10;;;8.50;;
33794;SDS011;51430;52.242;21.118;2023-02-13T14:36:00;11.70;;;7.90;;
33794;SDS011;51430;52.242;21.118;2023-02-13T14:42:22;11.50;;;9.40;;
33794;SDS011;51430;52.242;21.118;2023-02-13T14:45:21;11.40;;;9.30;;
33794;SDS011;51430;52.242;21.118;2023-02-13T14:48:12;13.90;;;9.50;;
33794;SDS011;51430;52.242;21.118;2023-02-13T14:51:55;12.00;;;7.80;;
33794;SDS011;51430;52.242;21.118;2023-02-13T14:55:34;11.90;;;8.40;;
33794;SDS011;51430;52.242;21.118;2023-02-13T15:55:28;8.30;;;5.50;;
33794;SDS011;51430;52.242;21.118;2023-02-13T16:09:30;7.30;;;5.70;;
33794;SDS011;51430;52.242;21.118;2023-02-13T16:23:00;8.00;;;5.90;;
33794;SDS011;51430;52.242;21.118;2023-02-13T16:25:52;9.80;;;6.60;;
33794;SDS011;51430;52.242;21.118;2023-02-13T17:16:54;7.30;;;4.90;;
33794;SDS011;51430;52.242;21.118;2023-02-13T17:30:49;7.60;;;5.00;;
33794;SDS011;51430;52.242;21.118;2023-02-13T17:34:19;7.80;;;4.90;;
33794;SDS011;51430;52.242;21.118;2023-02-13T17:40:17;8.10;;;5.50;;
33794;SDS011;51430;52.242;21.118;2023-02-13T17:43:29;7.30;;;5.40;;
33794;SDS011;51430;52.242;21.118;2023-02-13T18:01:31;7.20;;;4.60;;
33794;SDS011;51430;52.242;21.118;2023-02-13T18:16:14;6.40;;;5.30;;
33794;SDS011;51430;52.242;21.118;2023-02-13T18:19:00;7.90;;;5.30;;
33794;SDS011;51430;52.242;21.118;2023-02-13T18:21:45;8.90;;;5.30;;
33794;SDS011;51430;52.242;21.118;2023-02-13T18:24:31;9.60;;;5.80;;
33794;SDS011;51430;52.242;21.118;2023-02-13T18:34:56;9.30;;;5.00;;
33794;SDS011;51430;52.242;21.118;2023-02-13T18:37:42;7.50;;;5.00;;
33794;SDS011;51430;52.242;21.118;2023-02-13T18:40:29;7.70;;;5.30;;
33794;SDS011;51430;52.242;21.118;2023-02-13T18:43:15;7.30;;;5.50;;
33794;SDS011;51430;52.242;21.118;2023-02-13T18:46:01;7.60;;;5.20;;
33794;SDS011;51430;52.242;21.118;2023-02-13T18:50:10;7.70;;;4.90;;
33794;SDS011;51430;52.242;21.118;2023-02-13T18:54:07;7.70;;;5.40;;
33794;SDS011;51430;52.242;21.118;2023-02-13T18:58:06;7.30;;;4.80;;
33794;SDS011;51430;52.242;21.118;2023-02-13T19:02:22;8.40;;;5.20;;
33794;SDS011;51430;52.242;21.118;2023-02-13T19:05:41;8.40;;;5.20;;
33794;SDS011;51430;52.242;21.118;2023-02-13T19:08:28;9.90;;;6.10;;
33794;SDS011;51430;52.242;21.118;2023-02-13T19:11:27;10.00;;;6.20;;
33794;SDS011;51430;52.242;21.118;2023-02-13T19:14:16;9.20;;;6.30;;
33794;SDS011;51430;52.242;21.118;2023-02-13T19:17:02;8.50;;;6.60;;
33794;SDS011;51430;52.242;21.118;2023-02-13T19:19:49;9.00;;;6.20;;
33794;SDS011;51430;52.242;21.118;2023-02-13T19:33:24;9.10;;;5.60;;
33794;SDS011;51430;52.242;21.118;2023-02-13T19:36:53;8.60;;;6.00;;
33794;SDS011;51430;52.242;21.118;2023-02-13T19:50:25;9.70;;;6.10;;
33794;SDS011;51430;52.242;21.118;2023-02-13T19:53:24;9.70;;;5.50;;
33794;SDS011;51430;52.242;21.118;2023-02-13T19:57:21;10.40;;;5.40;;
33794;SDS011;51430;52.242;21.118;2023-02-13T20:26:03;10.30;;;5.80;;
33794;SDS011;51430;52.242;21.118;2023-02-13T20:53:15;9.60;;;5.50;;
33794;SDS011;51430;52.242;21.118;2023-02-13T21:01:33;11.20;;;4.80;;
33794;SDS011;51430;52.242;21.118;2023-02-13T21:31:15;9.20;;;5.40;;
33794;SDS011;51430;52.242;21.118;2023-02-13T21:34:57;12.20;;;5.30;;
33794;SDS011;51430;52.242;21.118;2023-02-13T21:49:37;11.70;;;5.40;;
33794;SDS011;51430;52.242;21.118;2023-02-13T22:11:25;12.00;;;5.50;;
33794;SDS011;51430;52.242;21.118;2023-02-13T22:20:38;10.10;;;5.30;;
33794;SDS011;51430;52.242;21.118;2023-02-13T22:24:36;9.60;;;5.00;;
33794;SDS011;51430;52.242;21.118;2023-02-13T22:28:32;7.10;;;5.00;;
33794;SDS011;51430;52.242;21.118;2023-02-13T22:32:30;8.80;;;5.10;;
33794;SDS011;51430;52.242;21.118;2023-02-13T22:36:29;6.90;;;4.50;;
33794;SDS011;51430;52.242;21.118;2023-02-13T22:40:25;9.20;;;5.20;;
33794;SDS011;51430;52.242;21.118;2023-02-13T22:44:23;9.00;;;5.10;;
33794;SDS011;51430;52.242;21.118;2023-02-13T22:59:10;8.30;;;4.80;;
33794;SDS011;51430;52.242;21.118;2023-02-13T23:02:04;7.80;;;4.80;;
33794;SDS011;51430;52.242;21.118;2023-02-13T23:06:01;10.80;;;5.40;;
33794;SDS011;51430;52.242;21.118;2023-02-13T23:10:02;9.50;;;5.50;;
33794;SDS011;51430;52.242;21.118;2023-02-13T23:14:00;10.80;;;5.50;;
33794;SDS011;51430;52.242;21.118;2023-02-13T23:18:00;8.00;;;4.90;;
33794;SDS011;51430;52.242;21.118;2023-02-13T23:32:37;9.20;;;5.50;;
33794;SDS011;51430;52.242;21.118;2023-02-13T23:35:32;8.00;;;5.20;;
33794;SDS011;51430;52.242;21.118;2023-02-13T23:39:41;9.00;;;4.80;;
33794;SDS011;51430;52.242;21.118;2023-02-13T23:43:08;9.30;;;5.30;;
33794;SDS011;51430;52.242;21.118;2023-02-13T23:47:04;7.70;;;5.20;;
33794;SDS011;51430;52.242;21.118;2023-02-13T23:51:03;8.50;;;5.20;;
33794;SDS011;51430;52.242;21.118;2023-02-13T23:54:58;8.10;;;5.20;;
33794;SDS011;51430;52.242;21.118;2023-02-13T23:59:14;8.50;;;5.20;;
